createdAt,value
2018-11-28T00:00:47.036Z,9.10
2018-11-28T00:03:56.423Z,12.73
2018-11-28T00:07:05.871Z,12.13
2018-11-28T00:10:15.440Z,11.60
2018-11-28T00:13:24.489Z,11.17
2018-11-28T00:16:33.779Z,12.07
2018-11-28T00:19:42.967Z,12.07
2018-11-28T00:22:52.165Z,11.70
2018-11-28T00:26:01.595Z,11.80
2018-11-28T00:29:10.862Z,10.30
2018-11-28T00:32:20.250Z,10.00
2018-11-28T00:35:29.592Z,9.47
2018-11-28T00:38:38.743Z,10.90
2018-11-28T00:41:47.982Z,12.00
2018-11-28T00:44:57.626Z,14.17
2018-11-28T00:48:06.761Z,14.07
2018-11-28T00:51:16.117Z,13.83
2018-11-28T00:54:25.389Z,13.20
2018-11-28T00:57:34.826Z,12.50
2018-11-28T01:00:43.979Z,12.10
2018-11-28T01:03:53.196Z,12.67
2018-11-28T01:07:02.553Z,13.33
2018-11-28T01:10:13.851Z,13.70
2018-11-28T01:13:23.133Z,13.73
2018-11-28T01:16:32.552Z,12.90
2018-11-28T01:19:41.782Z,12.97
2018-11-28T01:22:50.976Z,12.87
2018-11-28T01:26:00.342Z,13.70
2018-11-28T01:29:09.506Z,13.97
2018-11-28T01:32:18.874Z,14.10
2018-11-28T01:35:28.085Z,13.40
2018-11-28T01:38:37.399Z,14.20
2018-11-28T01:41:46.626Z,13.10
2018-11-28T01:44:55.863Z,13.60
2018-11-28T01:48:05.211Z,13.63
2018-11-28T01:51:14.415Z,13.37
2018-11-28T01:54:23.566Z,15.00
2018-11-28T01:57:37.591Z,15.07
2018-11-28T02:00:48.580Z,14.63
2018-11-28T02:03:59.325Z,15.43
2018-11-28T02:07:09.813Z,14.73
2018-11-28T02:10:19.388Z,15.37
2018-11-28T02:13:30.489Z,14.73
2018-11-28T02:16:39.730Z,15.93
2018-11-28T02:19:49.058Z,16.30
2018-11-28T02:22:58.465Z,15.33
2018-11-28T02:26:07.598Z,15.57
2018-11-28T02:29:17.031Z,15.57
2018-11-28T02:32:26.341Z,14.60
2018-11-28T02:35:35.717Z,14.67
2018-11-28T02:38:44.964Z,15.00
2018-11-28T02:41:54.394Z,14.43
2018-11-28T02:45:04.901Z,14.93
2018-11-28T02:48:13.999Z,15.13
2018-11-28T02:51:23.205Z,15.93
2018-11-28T02:54:32.378Z,15.17
2018-11-28T02:57:42.640Z,15.13
2018-11-28T03:00:52.056Z,15.53
2018-11-28T03:04:01.434Z,16.10
2018-11-28T03:07:10.674Z,16.10
2018-11-28T03:10:22.016Z,16.47
2018-11-28T03:13:31.218Z,15.20
2018-11-28T03:16:40.330Z,15.17
2018-11-28T03:19:49.688Z,15.30
2018-11-28T03:22:58.889Z,15.07
2018-11-28T03:26:08.269Z,15.73
2018-11-28T03:29:17.453Z,15.70
2018-11-28T03:32:26.722Z,15.83
2018-11-28T03:35:36.029Z,15.70
2018-11-28T03:38:45.236Z,15.67
2018-11-28T03:41:54.673Z,15.23
2018-11-28T03:45:05.702Z,16.07
2018-11-28T03:48:19.133Z,15.10
2018-11-28T03:51:28.389Z,16.00
2018-11-28T03:54:37.776Z,16.30
2018-11-28T03:57:47.722Z,16.23
2018-11-28T04:00:57.018Z,17.70
2018-11-28T04:04:06.442Z,16.07
2018-11-28T04:07:15.799Z,16.47
2018-11-28T04:10:24.985Z,16.07
2018-11-28T04:13:34.170Z,16.43
2018-11-28T04:16:43.388Z,16.73
2018-11-28T04:19:52.688Z,17.47
2018-11-28T04:23:01.928Z,17.40
2018-11-28T04:26:11.297Z,18.73
2018-11-28T04:29:20.495Z,19.07
2018-11-28T04:32:29.734Z,19.57
2018-11-28T04:35:38.852Z,21.03
2018-11-28T04:38:48.442Z,23.50
2018-11-28T04:41:57.615Z,28.07
2018-11-28T04:45:08.800Z,28.90
2018-11-28T04:48:18.077Z,33.73
2018-11-28T04:51:27.301Z,37.57
2018-11-28T04:54:36.572Z,38.07
2018-11-28T04:57:46.037Z,40.40
2018-11-28T05:00:55.340Z,40.47
2018-11-28T05:04:04.781Z,42.20
2018-11-28T05:07:24.087Z,42.33
2018-11-28T05:10:33.469Z,40.43
2018-11-28T05:13:42.592Z,38.27
2018-11-28T05:16:51.994Z,39.73
2018-11-28T05:20:01.188Z,39.57
2018-11-28T05:23:10.471Z,40.43
2018-11-28T05:26:19.654Z,40.23
2018-11-28T05:29:28.993Z,39.80
2018-11-28T05:32:38.396Z,34.80
2018-11-28T05:35:47.800Z,38.07
2018-11-28T05:38:57.042Z,40.00
2018-11-28T05:42:06.384Z,37.33
2018-11-28T05:45:15.840Z,34.23
2018-11-28T05:48:25.165Z,35.77
2018-11-28T05:51:34.520Z,32.40
2018-11-28T05:54:43.780Z,33.03
2018-11-28T05:57:53.108Z,32.00
2018-11-28T06:01:02.325Z,34.03
2018-11-28T06:04:11.840Z,34.10
2018-11-28T06:07:21.116Z,34.30
2018-11-28T06:10:30.254Z,34.10
2018-11-28T06:13:39.699Z,34.40
2018-11-28T06:16:49.056Z,35.23
2018-11-28T06:19:58.395Z,34.40
2018-11-28T06:23:07.795Z,35.07
2018-11-28T06:26:16.999Z,35.00
2018-11-28T06:29:26.412Z,36.80
2018-11-28T06:32:35.550Z,37.10
2018-11-28T06:35:44.977Z,36.80
2018-11-28T06:38:54.369Z,37.13
2018-11-28T06:42:03.552Z,36.53
2018-11-28T06:45:16.111Z,38.10
2018-11-28T06:48:25.499Z,37.47
2018-11-28T06:51:34.712Z,37.27
2018-11-28T06:54:43.849Z,36.10
2018-11-28T06:57:53.077Z,36.87
2018-11-28T07:01:02.398Z,37.30
2018-11-28T07:04:11.846Z,35.40
2018-11-28T07:07:21.199Z,34.03
2018-11-28T07:10:30.387Z,36.20
2018-11-28T07:13:39.599Z,34.13
2018-11-28T07:16:48.809Z,32.80
2018-11-28T07:19:58.114Z,32.87
2018-11-28T07:23:07.457Z,30.43
2018-11-28T07:26:16.592Z,29.17
2018-11-28T07:29:25.788Z,28.03
2018-11-28T07:32:35.133Z,27.87
2018-11-28T07:35:44.724Z,26.80
2018-11-28T07:38:54.219Z,25.57
2018-11-28T07:42:03.216Z,26.97
2018-11-28T07:45:12.675Z,25.57
2018-11-28T07:48:21.921Z,26.13
2018-11-28T07:51:31.097Z,25.27
2018-11-28T07:54:40.268Z,27.07
2018-11-28T07:57:49.666Z,26.80
2018-11-28T08:00:58.900Z,25.27
2018-11-28T08:04:08.156Z,24.10
2018-11-28T08:07:17.675Z,23.67
2018-11-28T08:10:27.145Z,20.43
2018-11-28T08:13:36.502Z,20.20
2018-11-28T08:16:45.808Z,21.07
2018-11-28T08:19:54.969Z,18.90
2018-11-28T08:23:04.672Z,19.60
2018-11-28T08:26:13.847Z,17.80
2018-11-28T08:29:23.141Z,18.40
2018-11-28T08:32:32.467Z,18.70
2018-11-28T08:35:41.644Z,17.97
2018-11-28T08:38:50.835Z,17.30
2018-11-28T08:42:00.152Z,18.37
2018-11-28T08:45:12.269Z,17.47
2018-11-28T08:48:21.465Z,16.13
2018-11-28T08:51:30.742Z,17.30
2018-11-28T08:54:40.114Z,16.47
2018-11-28T08:57:49.409Z,15.50
2018-11-28T09:00:58.619Z,15.27
2018-11-28T09:04:07.995Z,15.53
2018-11-28T09:07:17.309Z,15.73
2018-11-28T09:10:26.515Z,15.37
2018-11-28T09:13:35.889Z,15.27
2018-11-28T09:16:45.104Z,16.23
2018-11-28T09:19:54.424Z,15.43
2018-11-28T09:23:03.852Z,15.03
2018-11-28T09:26:18.520Z,15.63
2018-11-28T09:29:27.936Z,13.60
2018-11-28T09:32:37.487Z,13.67
2018-11-28T09:35:46.875Z,13.47
2018-11-28T09:38:56.035Z,12.93
2018-11-28T09:42:05.644Z,11.17
2018-11-28T09:45:15.580Z,11.83
2018-11-28T09:48:24.731Z,12.13
2018-11-28T09:51:34.035Z,11.70
2018-11-28T09:54:43.449Z,10.90
2018-11-28T09:57:52.831Z,11.27
2018-11-28T10:01:02.123Z,10.50
2018-11-28T10:04:11.461Z,11.50
2018-11-28T10:07:20.680Z,11.23
2018-11-28T10:10:29.975Z,10.60
2018-11-28T10:13:39.282Z,11.30
2018-11-28T10:16:48.870Z,10.60
2018-11-28T10:19:57.758Z,10.50
2018-11-28T10:23:07.120Z,10.10
2018-11-28T10:26:16.331Z,10.80
2018-11-28T10:29:25.619Z,10.93
2018-11-28T10:32:34.921Z,8.83
2018-11-28T10:35:44.057Z,10.13
2018-11-28T10:38:53.372Z,10.00
2018-11-28T10:42:02.614Z,7.83
2018-11-28T10:45:13.288Z,7.40
2018-11-28T10:48:22.613Z,7.37
2018-11-28T10:51:31.839Z,9.00
2018-11-28T10:54:41.084Z,7.47
2018-11-28T10:57:50.456Z,8.63
2018-11-28T11:01:05.244Z,7.00
2018-11-28T11:04:15.116Z,7.87
2018-11-28T11:07:29.632Z,8.10
2018-11-28T11:10:44.405Z,7.23
2018-11-28T11:13:59.197Z,8.30
2018-11-28T11:17:08.566Z,7.80
2018-11-28T11:20:17.745Z,7.17
2018-11-28T11:23:27.041Z,7.20
2018-11-28T11:26:36.432Z,7.13
2018-11-28T11:29:45.767Z,7.97
2018-11-28T11:32:55.146Z,7.50
2018-11-28T11:36:04.282Z,6.80
2018-11-28T11:39:13.495Z,7.67
2018-11-28T11:42:22.956Z,7.57
2018-11-28T11:45:32.203Z,7.63
2018-11-28T11:48:41.399Z,7.33
2018-11-28T11:51:50.591Z,7.40
2018-11-28T11:55:00.029Z,7.43
2018-11-28T11:58:09.095Z,6.87
2018-11-28T12:01:18.341Z,6.70
2018-11-28T12:04:27.714Z,7.27
2018-11-28T12:07:36.849Z,8.40
2018-11-28T12:10:46.542Z,7.17
2018-11-28T12:13:55.798Z,6.83
2018-11-28T12:17:06.024Z,7.30
2018-11-28T12:20:31.226Z,6.40
2018-11-28T12:23:40.528Z,7.67
2018-11-28T12:26:49.752Z,8.10
2018-11-28T12:29:59.103Z,6.37
2018-11-28T12:33:08.532Z,7.00
2018-11-28T12:36:17.839Z,7.47
2018-11-28T12:39:27.254Z,7.40
2018-11-28T12:42:36.620Z,7.33
2018-11-28T12:45:47.258Z,6.60
2018-11-28T12:48:56.524Z,7.03
2018-11-28T12:52:05.654Z,7.43
2018-11-28T12:55:14.888Z,8.63
2018-11-28T12:58:24.192Z,8.60
2018-11-28T13:01:33.443Z,7.33
2018-11-28T13:04:42.673Z,7.93
2018-11-28T13:07:52.027Z,7.30
2018-11-28T13:11:01.235Z,7.57
2018-11-28T13:14:10.352Z,8.37
2018-11-28T13:17:19.725Z,7.50
2018-11-28T13:20:28.964Z,7.90
2018-11-28T13:23:38.217Z,7.27
2018-11-28T13:26:47.524Z,7.57
2018-11-28T13:29:57.408Z,6.20
2018-11-28T13:33:07.703Z,7.40
2018-11-28T13:36:23.708Z,6.90
2018-11-28T13:39:32.829Z,6.40
2018-11-28T13:42:42.213Z,6.83
2018-11-28T13:45:51.608Z,7.17
2018-11-28T13:49:01.008Z,8.07
2018-11-28T13:52:10.204Z,6.77
2018-11-28T13:55:42.163Z,6.47
2018-11-28T13:58:35.569Z,6.50
2018-11-28T14:01:44.921Z,7.40
2018-11-28T14:04:54.282Z,6.67
2018-11-28T14:08:03.542Z,6.40
2018-11-28T14:11:12.655Z,6.83
2018-11-28T14:14:22.017Z,6.20
2018-11-28T14:17:31.284Z,6.53
2018-11-28T14:20:40.684Z,5.70
2018-11-28T14:23:49.971Z,6.43
2018-11-28T14:26:59.282Z,6.90
2018-11-28T14:30:10.914Z,7.20
2018-11-28T14:33:20.128Z,6.60
2018-11-28T14:36:29.388Z,7.30
2018-11-28T14:39:38.799Z,7.37
2018-11-28T14:42:50.415Z,6.57
2018-11-28T14:45:59.624Z,7.47
2018-11-28T14:49:08.848Z,7.67
2018-11-28T14:52:18.242Z,7.13
2018-11-28T14:55:29.529Z,7.67
2018-11-28T14:58:38.726Z,7.23
2018-11-28T15:01:48.953Z,6.97
2018-11-28T15:04:57.429Z,7.23
2018-11-28T15:08:10.113Z,7.63
2018-11-28T15:11:19.202Z,8.23
2018-11-28T15:14:28.397Z,7.47
2018-11-28T15:17:37.742Z,7.30
2018-11-28T15:20:46.993Z,7.50
2018-11-28T15:23:56.306Z,6.83
2018-11-28T15:27:05.959Z,8.53
2018-11-28T15:30:15.155Z,7.50
2018-11-28T15:33:24.555Z,7.77
2018-11-28T15:36:33.845Z,8.03
2018-11-28T15:39:43.153Z,7.53
2018-11-28T15:42:52.467Z,8.27
2018-11-28T15:46:01.718Z,7.97
2018-11-28T15:49:10.966Z,7.67
2018-11-28T15:52:20.171Z,7.90
2018-11-28T15:55:29.502Z,7.60
2018-11-28T15:58:38.696Z,7.77
2018-11-28T16:01:48.154Z,7.43
2018-11-28T16:04:57.473Z,7.77
2018-11-28T16:08:06.916Z,7.57
2018-11-28T16:11:17.543Z,7.50
2018-11-28T16:14:26.641Z,7.97
2018-11-28T16:17:35.821Z,7.23
2018-11-28T16:20:45.167Z,7.57
2018-11-28T16:23:54.411Z,7.70
2018-11-28T16:27:03.588Z,7.03
2018-11-28T16:30:13.802Z,7.30
2018-11-28T16:33:23.089Z,7.47
2018-11-28T16:36:32.204Z,7.17
2018-11-28T16:39:41.345Z,7.67
2018-11-28T16:42:50.633Z,7.47
2018-11-28T16:45:59.896Z,7.03
2018-11-28T16:49:09.234Z,7.97
2018-11-28T16:52:18.346Z,7.37
2018-11-28T16:55:27.688Z,7.20
2018-11-28T16:58:36.933Z,8.80
2018-11-28T17:01:46.062Z,8.43
2018-11-28T17:04:55.375Z,8.27
2018-11-28T17:08:04.610Z,8.13
2018-11-28T17:11:13.802Z,7.93
2018-11-28T17:14:23.196Z,7.80
2018-11-28T17:17:32.514Z,8.47
2018-11-28T17:20:42.570Z,8.50
2018-11-28T17:23:51.813Z,9.27
2018-11-28T17:27:00.999Z,9.07
2018-11-28T17:30:11.699Z,8.93
2018-11-28T17:33:20.993Z,8.70
2018-11-28T17:36:30.360Z,8.80
2018-11-28T17:39:39.667Z,9.20
2018-11-28T17:42:50.235Z,9.03
2018-11-28T17:45:59.432Z,9.17
2018-11-28T17:49:08.786Z,9.40
2018-11-28T17:52:18.025Z,10.07
2018-11-28T17:55:28.410Z,9.70
2018-11-28T17:58:37.677Z,9.53
2018-11-28T18:01:47.041Z,8.93
2018-11-28T18:04:56.186Z,9.17
2018-11-28T18:08:05.525Z,8.53
2018-11-28T18:11:15.405Z,9.17
2018-11-28T18:14:24.670Z,8.80
2018-11-28T18:17:33.985Z,9.37
2018-11-28T18:20:43.122Z,8.93
2018-11-28T18:23:52.862Z,10.00
2018-11-28T18:27:02.080Z,8.93
2018-11-28T18:30:12.172Z,8.50
2018-11-28T18:33:21.258Z,9.40
2018-11-28T18:36:30.573Z,9.57
2018-11-28T18:39:39.872Z,9.37
2018-11-28T18:42:49.120Z,9.83
2018-11-28T18:45:58.823Z,10.23
2018-11-28T18:49:07.681Z,10.23
2018-11-28T18:52:16.876Z,11.97
2018-11-28T18:55:26.186Z,9.93
2018-11-28T18:58:35.311Z,10.73
2018-11-28T19:01:48.408Z,11.37
2018-11-28T19:04:53.951Z,11.27
2018-11-28T19:08:03.234Z,11.80
2018-11-28T19:11:12.464Z,10.73
2018-11-28T19:14:22.224Z,11.43
2018-11-28T19:17:31.456Z,10.73
2018-11-28T19:20:40.666Z,13.03
2018-11-28T19:23:50.146Z,13.47
2018-11-28T19:26:59.460Z,14.90
2018-11-28T19:30:13.254Z,14.47
2018-11-28T19:33:22.538Z,14.63
2018-11-28T19:36:31.889Z,14.57
2018-11-28T19:39:41.132Z,14.53
2018-11-28T19:42:50.444Z,16.77
2018-11-28T19:45:59.693Z,15.97
2018-11-28T19:49:09.132Z,16.13
2018-11-28T19:52:18.548Z,16.97
2018-11-28T19:55:27.922Z,18.37
2018-11-28T19:58:37.166Z,18.43
2018-11-28T20:01:46.328Z,18.33
2018-11-28T20:04:55.415Z,18.67
2018-11-28T20:08:04.652Z,19.67
2018-11-28T20:11:13.861Z,20.77
2018-11-28T20:14:23.172Z,18.73
2018-11-28T20:17:32.713Z,19.57
2018-11-28T20:20:42.028Z,19.83
2018-11-28T20:23:51.214Z,20.77
2018-11-28T20:27:00.565Z,20.37
2018-11-28T20:30:12.427Z,21.93
2018-11-28T20:33:21.772Z,21.03
2018-11-28T20:36:31.169Z,21.13
2018-11-28T20:39:40.557Z,22.27
2018-11-28T20:42:51.189Z,23.03
2018-11-28T20:46:00.262Z,23.30
2018-11-28T20:49:09.543Z,23.93
2018-11-28T20:52:19.637Z,23.53
2018-11-28T20:55:28.934Z,24.30
2018-11-28T20:58:38.138Z,25.27
2018-11-28T21:01:47.605Z,25.20
2018-11-28T21:04:56.741Z,26.40
2018-11-28T21:08:07.666Z,27.40
2018-11-28T21:11:16.906Z,27.80
2018-11-28T21:14:26.317Z,26.40
2018-11-28T21:17:35.457Z,28.33
2018-11-28T21:20:45.735Z,26.60
2018-11-28T21:23:54.809Z,26.20
2018-11-28T21:27:04.077Z,26.53
2018-11-28T21:30:16.301Z,27.87
2018-11-28T21:33:25.574Z,27.83
2018-11-28T21:36:34.812Z,27.30
2018-11-28T21:39:52.701Z,28.03
2018-11-28T21:43:01.939Z,27.20
2018-11-28T21:46:11.275Z,27.97
2018-11-28T21:49:20.651Z,26.87
2018-11-28T21:52:29.996Z,29.23
2018-11-28T21:55:39.496Z,27.13
2018-11-28T21:58:48.618Z,26.90
2018-11-28T22:01:57.761Z,26.57
2018-11-28T22:05:08.404Z,27.33
2018-11-28T22:08:17.688Z,26.33
2018-11-28T22:11:26.958Z,27.83
2018-11-28T22:14:36.302Z,25.10
2018-11-28T22:17:47.065Z,26.93
2018-11-28T22:20:56.320Z,24.17
2018-11-28T22:24:05.993Z,24.77
2018-11-28T22:27:15.368Z,27.17
2018-11-28T22:30:27.825Z,26.03
2018-11-28T22:33:37.035Z,26.73
2018-11-28T22:36:46.457Z,26.13
2018-11-28T22:39:55.757Z,27.37
2018-11-28T22:43:05.191Z,27.13
2018-11-28T22:46:14.363Z,28.20
2018-11-28T22:49:23.514Z,26.80
2018-11-28T22:52:32.932Z,28.10
2018-11-28T22:55:42.241Z,28.40
2018-11-28T22:58:51.365Z,28.47
2018-11-28T23:03:06.600Z,27.17
2018-11-28T23:06:15.720Z,28.20
2018-11-28T23:09:24.822Z,28.70
2018-11-28T23:12:34.826Z,29.03
2018-11-28T23:15:44.137Z,28.00
2018-11-28T23:18:53.568Z,28.17
2018-11-28T23:22:02.699Z,25.37
2018-11-28T23:25:12.203Z,29.13
2018-11-28T23:28:21.549Z,29.57
2018-11-28T23:31:30.909Z,28.40
2018-11-28T23:34:40.144Z,29.07
2018-11-28T23:37:49.804Z,28.20
2018-11-28T23:40:59.107Z,30.20
2018-11-28T23:44:08.273Z,28.13
2018-11-28T23:47:17.656Z,30.23
2018-11-28T23:50:27.056Z,31.00
2018-11-28T23:53:36.260Z,30.63
2018-11-28T23:56:45.507Z,31.17
2018-11-28T23:59:54.865Z,33.07
